If you wish to contribute or participate in the discussions about articles you are invited to join SKYbrary as a registered user

 Actions

East Kimberley Regional Airport

From SKYbrary Wiki

YPKU
Airport
ICAO: YPKU – IATA: KNX
Summary
Name East Kimberley Regional Airport
Region Asia and Pacific
Territory Australia AU.gif
Location Kununurra, Western Australia
Serving Kununurra
Elevation 44.196 m
145 ft
145 ft44.196 m
Coordinates 15° 46' 41.43" S, 128° 42' 34.00" E
Runways
Designator Length Width Surface ROPS
12/30 1829 m6,000.656 ft
30 m98.425 ft
ASP yes/yes


METAR
Observation YPKU 230600Z AUTO 02009KT 9999 // NCD 38/12 Q1007 RF00.0/000.0
Station Kununurra Kununurra Aws
Date/Time 23 October 2019 06:00:00
Wind direction 20°
Wind speed 09 kts
Lowest cloud amount no clouds detected
Temperature 38°C
Dew point 12°C
Humidity 21%
QNH 1007 hPa
Weather condition n/a

Kununurra Airport is an airport in Kununurra, Western Australia. The airport is 2.5 km from the town centre.

Maps

Terrain

Loading map...

Airport Layout

Loading map...


Accidents & Serious Incidents at or in vicinity of YPKU

None on SKYbrary